createdAt,value
2023-04-14T00:00:10.260Z,19.13
2023-04-14T00:03:01.593Z,18.80
2023-04-14T00:05:33.621Z,19.75
2023-04-14T00:08:03.063Z,18.92
2023-04-14T00:10:31.292Z,19.17
2023-04-14T00:13:00.404Z,20.20
2023-04-14T00:17:56.505Z,19.33
2023-04-14T00:20:24.119Z,19.02
2023-04-14T00:22:51.893Z,19.63
2023-04-14T00:25:19.637Z,20.48
2023-04-14T00:27:47.073Z,22.48
2023-04-14T00:30:16.368Z,22.73
2023-04-14T00:32:44.569Z,23.20
2023-04-14T00:35:12.193Z,24.17
2023-04-14T00:37:42.004Z,23.52
2023-04-14T00:40:11.093Z,24.13
2023-04-14T00:42:45.829Z,21.58
2023-04-14T00:45:15.099Z,22.50
2023-04-14T00:47:47.356Z,22.23
2023-04-14T00:50:15.675Z,21.92
2023-04-14T00:52:44.695Z,20.58
2023-04-14T00:55:13.228Z,19.30
2023-04-14T00:57:41.137Z,20.88
2023-04-14T01:00:11.241Z,19.55
2023-04-14T01:02:41.696Z,20.15
2023-04-14T01:05:10.317Z,20.27
2023-04-14T01:07:38.666Z,20.45
2023-04-14T01:10:07.360Z,20.05
2023-04-14T01:13:01.072Z,19.92
2023-04-14T01:15:59.576Z,21.00
2023-04-14T01:18:51.990Z,20.48
2023-04-14T01:21:26.464Z,19.75
2023-04-14T01:24:09.117Z,21.95
2023-04-14T01:26:38.325Z,20.60
2023-04-14T01:29:34.220Z,21.40
2023-04-14T01:32:14.507Z,19.77
2023-04-14T01:34:52.168Z,19.23
2023-04-14T01:37:31.865Z,18.35
2023-04-14T01:40:03.790Z,19.00
2023-04-14T01:42:36.221Z,19.17
2023-04-14T01:45:09.976Z,18.13
2023-04-14T01:47:42.680Z,18.65
2023-04-14T01:50:12.465Z,19.02
2023-04-14T01:52:44.642Z,18.00
2023-04-14T01:55:13.180Z,18.23
2023-04-14T01:57:45.696Z,17.65
2023-04-14T02:00:16.623Z,17.98
2023-04-14T02:02:47.021Z,18.65
2023-04-14T02:05:17.305Z,17.98
2023-04-14T02:07:47.812Z,18.85
2023-04-14T02:10:19.270Z,17.95
2023-04-14T02:12:54.425Z,18.77
2023-04-14T02:15:42.364Z,17.45
2023-04-14T02:18:10.752Z,16.77
2023-04-14T02:20:45.015Z,17.17
2023-04-14T02:23:28.575Z,17.15
2023-04-14T02:26:02.782Z,17.67
2023-04-14T02:28:36.370Z,17.67
2023-04-14T02:31:10.407Z,16.50
2023-04-14T02:33:40.077Z,17.23
2023-04-14T02:38:48.176Z,16.48
2023-04-14T02:41:25.418Z,15.77
2023-04-14T02:44:05.348Z,15.55
2023-04-14T02:46:38.052Z,15.95
2023-04-14T02:49:08.170Z,16.48
2023-04-14T02:51:37.968Z,16.52
2023-04-14T02:54:06.132Z,16.42
2023-04-14T02:56:42.264Z,14.65
2023-04-14T02:59:10.164Z,14.18
2023-04-14T03:01:45.924Z,15.57
2023-04-14T03:04:15.838Z,13.95
2023-04-14T03:06:44.385Z,13.05
2023-04-14T03:09:12.762Z,14.27
2023-04-14T03:11:44.438Z,12.68
2023-04-14T03:14:14.397Z,13.70
2023-04-14T03:16:42.948Z,12.83
2023-04-14T03:19:12.983Z,13.30
2023-04-14T03:21:46.989Z,12.95
2023-04-14T03:24:19.226Z,13.73
2023-04-14T03:26:48.637Z,12.70
2023-04-14T03:29:21.064Z,13.23
2023-04-14T03:31:49.576Z,13.85
2023-04-14T03:34:19.330Z,14.65
2023-04-14T03:36:54.666Z,15.45
2023-04-14T03:39:27.437Z,14.88
2023-04-14T03:41:57.276Z,14.85
2023-04-14T03:44:27.712Z,15.13
2023-04-14T03:46:55.751Z,13.80
2023-04-14T03:49:25.660Z,14.20
2023-04-14T03:51:57.492Z,15.77
2023-04-14T03:54:27.974Z,17.50
2023-04-14T03:56:57.034Z,15.43
2023-04-14T03:59:31.761Z,14.77
2023-04-14T04:02:02.913Z,13.52
2023-04-14T04:04:32.240Z,14.00
2023-04-14T04:07:00.340Z,13.95
2023-04-14T04:09:30.011Z,13.32
2023-04-14T04:12:00.009Z,13.48
2023-04-14T04:14:31.227Z,15.18
2023-04-14T04:17:05.961Z,15.73
2023-04-14T04:19:35.660Z,14.10
2023-04-14T04:22:05.296Z,13.75
2023-04-14T04:24:38.610Z,13.10
2023-04-14T04:27:17.137Z,13.20
2023-04-14T04:29:52.901Z,12.55
2023-04-14T04:32:21.230Z,11.35
2023-04-14T04:34:49.693Z,10.45
2023-04-14T04:37:21.565Z,9.90
2023-04-14T04:39:49.581Z,10.32
2023-04-14T04:42:18.907Z,10.43
2023-04-14T04:44:49.160Z,10.25
2023-04-14T04:47:16.675Z,10.40
2023-04-14T04:49:45.026Z,10.23
2023-04-14T04:52:12.722Z,9.02
2023-04-14T04:54:40.943Z,10.45
2023-04-14T04:57:08.427Z,9.38
2023-04-14T04:59:37.975Z,8.80
2023-04-14T05:02:09.202Z,8.32
2023-04-14T05:04:36.836Z,8.10
2023-04-14T05:07:04.445Z,8.68
2023-04-14T05:09:36.693Z,8.30
2023-04-14T05:12:05.664Z,9.13
2023-04-14T05:14:33.151Z,7.40
2023-04-14T05:17:00.687Z,7.13
2023-04-14T05:19:28.220Z,7.25
2023-04-14T05:21:56.419Z,7.38
2023-04-14T05:24:23.873Z,7.20
2023-04-14T05:27:11.794Z,6.95
2023-04-14T05:29:39.505Z,6.70
2023-04-14T05:32:07.266Z,6.60
2023-04-14T05:34:34.748Z,6.47
2023-04-14T05:37:03.184Z,6.80
2023-04-14T05:39:30.675Z,7.35
2023-04-14T05:41:59.734Z,6.70
2023-04-14T05:44:27.262Z,8.35
2023-04-14T05:46:54.858Z,7.28
2023-04-14T05:49:23.253Z,7.93
2023-04-14T05:51:51.445Z,7.20
2023-04-14T05:54:19.845Z,7.57
2023-04-14T05:56:47.610Z,7.43
2023-04-14T05:59:16.359Z,7.80
2023-04-14T06:01:44.207Z,7.65
2023-04-14T06:04:12.995Z,7.97
2023-04-14T06:06:40.850Z,6.97
2023-04-14T06:09:11.115Z,7.25
2023-04-14T06:11:39.763Z,13.52
2023-04-14T06:14:07.678Z,7.97
2023-04-14T06:16:35.421Z,7.75
2023-04-14T06:19:04.467Z,8.13
2023-04-14T06:21:32.436Z,7.50
2023-04-14T06:23:59.949Z,8.35
2023-04-14T06:28:57.903Z,8.05
2023-04-14T06:31:25.442Z,9.32
2023-04-14T06:33:53.159Z,9.10
2023-04-14T06:36:20.764Z,9.15
2023-04-14T06:38:48.624Z,8.90
2023-04-14T06:41:16.280Z,8.45
2023-04-14T06:43:43.801Z,8.95
2023-04-14T06:46:11.726Z,8.60
2023-04-14T06:48:39.300Z,9.23
2023-04-14T06:51:10.665Z,8.75
2023-04-14T06:53:39.933Z,8.93
2023-04-14T06:56:08.283Z,8.68
2023-04-14T06:58:36.773Z,8.30
2023-04-14T07:01:05.750Z,8.80
2023-04-14T07:03:34.508Z,8.35
2023-04-14T07:06:04.698Z,8.93
2023-04-14T07:08:34.967Z,7.97
2023-04-14T07:11:04.257Z,8.15
2023-04-14T07:13:32.799Z,8.80
2023-04-14T07:16:04.223Z,8.98
2023-04-14T07:18:33.006Z,8.82
2023-04-14T07:21:01.293Z,8.80
2023-04-14T07:23:33.704Z,8.48
2023-04-14T07:26:02.139Z,7.32
2023-04-14T07:28:30.148Z,8.32
2023-04-14T07:31:11.050Z,8.57
2023-04-14T07:33:39.886Z,8.27
2023-04-14T07:36:09.440Z,7.90
2023-04-14T07:38:37.191Z,6.70
2023-04-14T07:41:06.475Z,7.30
2023-04-14T07:43:37.255Z,7.07
2023-04-14T07:46:07.780Z,8.13
2023-04-14T07:48:36.666Z,6.63
2023-04-14T07:51:08.473Z,5.97
2023-04-14T07:53:42.327Z,6.82
2023-04-14T07:56:09.960Z,6.00
2023-04-14T07:58:40.435Z,6.40
2023-04-14T08:01:08.244Z,6.10
2023-04-14T08:03:40.215Z,7.57
2023-04-14T08:06:09.757Z,6.13
2023-04-14T08:08:38.208Z,6.32
2023-04-14T08:11:05.984Z,6.30
2023-04-14T08:13:33.436Z,5.57
2023-04-14T08:16:04.256Z,5.95
2023-04-14T08:18:32.800Z,6.45
2023-04-14T08:21:00.500Z,6.47
2023-04-14T08:23:28.163Z,6.32
2023-04-14T08:25:56.060Z,6.90
2023-04-14T08:28:24.701Z,6.93
2023-04-14T08:30:54.580Z,7.10
2023-04-14T08:33:23.437Z,7.63
2023-04-14T08:35:57.249Z,6.90
2023-04-14T08:38:30.026Z,7.47
2023-04-14T08:40:57.775Z,7.97
2023-04-14T08:43:25.417Z,7.93
2023-04-14T08:45:54.028Z,7.57
2023-04-14T08:48:26.240Z,17.35
2023-04-14T08:51:33.850Z,8.15
2023-04-14T08:54:05.707Z,8.68
2023-04-14T08:56:43.257Z,8.85
2023-04-14T08:59:11.648Z,8.23
2023-04-14T09:01:40.163Z,8.87
2023-04-14T09:04:08.975Z,8.45
2023-04-14T09:06:37.320Z,9.18
2023-04-14T09:09:08.807Z,7.82
2023-04-14T09:11:37.794Z,7.60
2023-04-14T09:14:06.182Z,8.23
2023-04-14T09:16:36.311Z,7.53
2023-04-14T09:19:07.032Z,4.88
2023-04-14T09:21:54.008Z,3.55
2023-04-14T09:24:34.160Z,3.65
2023-04-14T09:27:06.903Z,3.92
2023-04-14T09:29:34.723Z,3.97
2023-04-14T09:32:02.722Z,4.20
2023-04-14T09:34:31.487Z,4.18
2023-04-14T09:37:09.834Z,3.63
2023-04-14T09:39:51.425Z,3.70
2023-04-14T09:42:19.742Z,4.28
2023-04-14T09:44:54.381Z,4.30
2023-04-14T09:47:24.836Z,4.72
2023-04-14T09:50:00.877Z,5.25
2023-04-14T09:52:42.830Z,5.45
2023-04-14T09:55:16.917Z,5.95
2023-04-14T09:57:47.712Z,5.15
2023-04-14T10:00:15.788Z,6.05
2023-04-14T10:03:09.196Z,6.50
2023-04-14T10:05:39.287Z,5.57
2023-04-14T10:08:07.552Z,8.32
2023-04-14T10:10:35.063Z,5.80
2023-04-14T10:13:08.498Z,6.22
2023-04-14T10:15:39.668Z,6.15
2023-04-14T10:18:07.404Z,6.28
2023-04-14T10:20:38.560Z,6.13
2023-04-14T10:23:07.147Z,5.93
2023-04-14T10:25:34.849Z,6.18
2023-04-14T10:28:05.236Z,6.18
2023-04-14T10:30:33.742Z,6.85
2023-04-14T10:33:02.472Z,5.75
2023-04-14T10:35:40.700Z,4.90
2023-04-14T10:38:08.573Z,5.30
2023-04-14T10:40:46.997Z,5.57
2023-04-14T10:43:14.622Z,5.00
2023-04-14T10:45:58.817Z,5.40
2023-04-14T10:48:32.503Z,5.90
2023-04-14T10:51:01.715Z,5.70
2023-04-14T10:53:46.352Z,5.97
2023-04-14T10:56:14.259Z,6.40
2023-04-14T10:58:45.570Z,5.45
2023-04-14T11:01:28.150Z,6.25
2023-04-14T11:03:57.472Z,5.70
2023-04-14T11:06:47.594Z,6.27
2023-04-14T11:09:33.092Z,6.85
2023-04-14T11:12:06.264Z,6.88
2023-04-14T11:14:36.369Z,7.65
2023-04-14T11:17:05.446Z,7.57
2023-04-14T11:19:33.684Z,8.07
2023-04-14T11:22:01.295Z,7.45
2023-04-14T11:24:29.127Z,7.10
2023-04-14T11:26:57.370Z,8.02
2023-04-14T11:29:30.522Z,7.60
2023-04-14T11:32:06.538Z,7.72
2023-04-14T11:34:35.118Z,7.43
2023-04-14T11:37:03.839Z,5.32
2023-04-14T11:39:32.340Z,5.65
2023-04-14T11:42:00.615Z,6.90
2023-04-14T11:44:28.836Z,6.65
2023-04-14T11:46:56.728Z,5.75
2023-04-14T11:49:37.197Z,6.72
2023-04-14T11:52:06.588Z,6.35
2023-04-14T11:54:39.161Z,6.68
2023-04-14T11:57:13.816Z,7.00
2023-04-14T11:59:47.718Z,8.07
2023-04-14T12:02:17.578Z,7.57
2023-04-14T12:04:49.319Z,7.18
2023-04-14T12:07:20.732Z,7.35
2023-04-14T12:09:51.671Z,7.00
2023-04-14T12:12:20.309Z,7.07
2023-04-14T12:14:49.477Z,6.32
2023-04-14T12:17:20.277Z,5.90
2023-04-14T12:19:49.054Z,5.55
2023-04-14T12:22:29.936Z,5.00
2023-04-14T12:25:13.294Z,4.97
2023-04-14T12:27:43.269Z,6.53
2023-04-14T12:30:11.057Z,5.10
2023-04-14T12:32:40.836Z,4.55
2023-04-14T12:35:09.356Z,7.47
2023-04-14T12:37:38.714Z,4.18
2023-04-14T12:40:07.422Z,4.35
2023-04-14T12:42:46.280Z,7.33
2023-04-14T12:45:16.076Z,4.57
2023-04-14T12:48:02.513Z,5.40
2023-04-14T12:50:30.462Z,4.45
2023-04-14T12:53:03.458Z,4.32
2023-04-14T12:55:32.075Z,4.35
2023-04-14T12:58:00.218Z,4.67
2023-04-14T13:00:28.331Z,4.78
2023-04-14T13:02:57.324Z,4.07
2023-04-14T13:05:25.006Z,4.55
2023-04-14T13:07:52.765Z,4.38
2023-04-14T13:10:20.434Z,4.60
2023-04-14T13:12:48.107Z,5.53
2023-04-14T13:15:27.914Z,4.65
2023-04-14T13:18:04.052Z,4.65
2023-04-14T13:20:31.937Z,5.50
2023-04-14T13:23:00.700Z,5.15
2023-04-14T13:25:28.455Z,6.38
2023-04-14T13:27:56.430Z,5.75
2023-04-14T13:30:23.948Z,7.05
2023-04-14T13:32:51.581Z,6.90
2023-04-14T13:35:19.218Z,6.75
2023-04-14T13:37:48.372Z,8.55
2023-04-14T13:40:15.879Z,6.53
2023-04-14T13:42:43.798Z,7.35
2023-04-14T13:45:11.442Z,8.02
2023-04-14T13:47:40.314Z,3.55
2023-04-14T13:50:08.427Z,2.70
2023-04-14T13:52:35.975Z,2.80
2023-04-14T13:55:05.150Z,3.03
2023-04-14T13:57:33.185Z,2.88
2023-04-14T14:00:00.757Z,2.83
2023-04-14T14:02:33.548Z,3.05
2023-04-14T14:05:01.791Z,3.00
2023-04-14T14:07:29.612Z,4.80
2023-04-14T14:09:57.725Z,8.73
2023-04-14T14:12:28.176Z,14.52
2023-04-14T14:14:55.832Z,16.63
2023-04-14T14:17:23.346Z,14.25
2023-04-14T14:19:51.268Z,13.80
2023-04-14T14:22:18.830Z,16.80
2023-04-14T14:24:46.272Z,15.10
2023-04-14T14:27:14.217Z,13.35
2023-04-14T14:29:41.998Z,11.32
2023-04-14T14:32:09.780Z,16.63
2023-04-14T14:34:39.166Z,21.75
2023-04-14T14:37:06.670Z,20.00
2023-04-14T14:39:41.931Z,18.13
2023-04-14T14:42:09.776Z,16.17
2023-04-14T14:44:38.126Z,14.68
2023-04-14T14:47:07.154Z,5.95
2023-04-14T14:49:35.587Z,3.72
2023-04-14T14:52:04.894Z,3.28
2023-04-14T14:54:33.122Z,3.58
2023-04-14T14:57:01.523Z,2.33
2023-04-14T14:59:29.014Z,2.10
2023-04-14T15:01:56.819Z,2.42
2023-04-14T15:04:24.654Z,2.38
2023-04-14T15:06:52.280Z,2.17
2023-04-14T15:09:19.811Z,3.13
2023-04-14T15:11:47.802Z,2.70
2023-04-14T15:14:15.503Z,2.60
2023-04-14T15:16:43.517Z,4.00
2023-04-14T15:19:15.488Z,5.85
2023-04-14T15:21:43.942Z,7.20
2023-04-14T15:24:11.806Z,9.07
2023-04-14T15:26:39.647Z,10.40
2023-04-14T15:29:07.982Z,8.93
2023-04-14T15:31:35.944Z,8.60
2023-04-14T15:34:03.793Z,6.50
2023-04-14T15:36:34.074Z,5.75
2023-04-14T15:39:01.532Z,6.05
2023-04-14T15:41:29.297Z,5.50
2023-04-14T15:43:57.576Z,5.28
2023-04-14T15:46:25.411Z,4.70
2023-04-14T15:48:54.856Z,6.10
2023-04-14T15:51:23.277Z,7.93
2023-04-14T15:53:52.232Z,10.70
2023-04-14T15:56:23.230Z,10.13
2023-04-14T15:58:51.576Z,9.50
2023-04-14T16:01:19.317Z,5.15
2023-04-14T16:03:48.373Z,4.68
2023-04-14T16:06:17.521Z,5.53
2023-04-14T16:08:45.024Z,5.07
2023-04-14T16:11:19.807Z,8.27
2023-04-14T16:13:56.904Z,9.00
2023-04-14T16:16:25.223Z,11.13
2023-04-14T16:18:52.909Z,10.32
2023-04-14T16:21:24.548Z,9.02
2023-04-14T16:23:52.358Z,8.13
2023-04-14T16:26:21.198Z,8.33
2023-04-14T16:28:48.744Z,9.68
2023-04-14T16:31:17.856Z,8.43
2023-04-14T16:33:45.915Z,5.87
2023-04-14T16:36:13.315Z,4.45
2023-04-14T16:38:40.924Z,4.65
2023-04-14T16:41:08.780Z,3.35
2023-04-14T16:43:36.540Z,3.95
2023-04-14T16:46:07.089Z,3.45
2023-04-14T16:48:35.927Z,2.97
2023-04-14T16:51:08.633Z,3.95
2023-04-14T16:53:38.827Z,4.93
2023-04-14T16:56:11.256Z,4.70
2023-04-14T16:58:45.302Z,6.05
2023-04-14T17:01:12.973Z,5.57
2023-04-14T17:03:41.033Z,4.70
2023-04-14T17:06:08.810Z,5.38
2023-04-14T17:08:36.506Z,6.55
2023-04-14T17:11:04.067Z,8.77
2023-04-14T17:13:31.565Z,8.85
2023-04-14T17:16:08.335Z,9.63
2023-04-14T17:18:38.264Z,11.93
2023-04-14T17:21:06.547Z,12.38
2023-04-14T17:23:37.359Z,11.52
2023-04-14T17:26:05.741Z,10.85
2023-04-14T17:28:34.986Z,10.23
2023-04-14T17:31:11.151Z,10.45
2023-04-14T17:33:46.159Z,10.55
2023-04-14T17:36:15.319Z,6.35
2023-04-14T17:38:43.583Z,3.65
2023-04-14T17:41:12.894Z,2.57
2023-04-14T17:43:43.848Z,2.08
2023-04-14T17:46:12.104Z,1.60
2023-04-14T17:48:40.457Z,1.58
2023-04-14T17:51:08.236Z,1.85
2023-04-14T17:53:36.699Z,1.92
2023-04-14T17:56:05.939Z,1.60
2023-04-14T17:58:33.895Z,1.65
2023-04-14T18:01:01.443Z,1.50
2023-04-14T18:03:30.774Z,2.28
2023-04-14T18:05:58.769Z,2.08
2023-04-14T18:08:26.797Z,2.30
2023-04-14T18:10:59.272Z,4.60
2023-04-14T18:13:29.981Z,5.68
2023-04-14T18:15:57.536Z,8.93
2023-04-14T18:18:26.089Z,6.50
2023-04-14T18:20:54.315Z,3.50
2023-04-14T18:23:22.369Z,2.60
2023-04-14T18:28:31.903Z,1.88
2023-04-14T18:30:59.717Z,1.88
2023-04-14T18:33:29.310Z,1.83
2023-04-14T18:35:58.255Z,1.25
2023-04-14T18:38:26.012Z,1.20
2023-04-14T18:41:05.027Z,1.50
2023-04-14T18:43:33.938Z,1.27
2023-04-14T18:46:02.354Z,1.50
2023-04-14T18:48:34.506Z,1.50
2023-04-14T18:51:06.548Z,1.55
2023-04-14T18:53:34.468Z,1.85
2023-04-14T18:56:03.596Z,1.83
2023-04-14T18:58:31.962Z,1.70
2023-04-14T19:00:59.485Z,1.75
2023-04-14T19:03:28.621Z,1.92
2023-04-14T19:05:56.686Z,1.65
2023-04-14T19:08:24.591Z,1.58
2023-04-14T19:10:55.381Z,1.90
2023-04-14T19:13:24.180Z,1.90
2023-04-14T19:15:51.818Z,1.40
2023-04-14T19:18:20.126Z,1.38
2023-04-14T19:20:50.049Z,0.95
2023-04-14T19:23:17.916Z,1.20
2023-04-14T19:25:45.707Z,1.42
2023-04-14T19:28:18.054Z,1.10
2023-04-14T19:30:46.535Z,1.10
2023-04-14T19:33:15.603Z,0.95
2023-04-14T19:35:44.868Z,1.05
2023-04-14T19:38:13.023Z,1.00
2023-04-14T19:40:46.492Z,0.90
2023-04-14T19:43:18.215Z,1.00
2023-04-14T19:45:52.010Z,1.25
2023-04-14T19:48:24.131Z,1.50
2023-04-14T19:50:54.813Z,1.00
2023-04-14T19:53:24.387Z,1.05
2023-04-14T19:55:53.732Z,1.13
2023-04-14T19:58:22.010Z,1.00
2023-04-14T20:00:53.771Z,1.08
2023-04-14T20:03:23.460Z,1.30
2023-04-14T20:05:55.760Z,1.23
2023-04-14T20:08:27.382Z,1.58
2023-04-14T20:10:55.939Z,1.33
2023-04-14T20:13:24.646Z,1.33
2023-04-14T20:15:58.805Z,1.35
2023-04-14T20:18:27.814Z,1.50
2023-04-14T20:20:57.459Z,1.90
2023-04-14T20:23:25.976Z,1.92
2023-04-14T20:25:53.774Z,1.80
2023-04-14T20:28:26.482Z,1.58
2023-04-14T20:30:54.767Z,1.58
2023-04-14T20:33:23.610Z,1.60
2023-04-14T20:35:53.375Z,1.50
2023-04-14T20:38:22.546Z,1.50
2023-04-14T20:40:50.643Z,2.05
2023-04-14T20:43:18.836Z,1.50
2023-04-14T20:45:49.305Z,1.65
2023-04-14T20:48:16.945Z,1.42
2023-04-14T20:50:49.710Z,1.40
2023-04-14T20:53:18.052Z,1.50
2023-04-14T20:55:46.465Z,1.60
2023-04-14T20:58:14.249Z,1.67
2023-04-14T21:00:42.211Z,8.27
2023-04-14T21:03:11.286Z,1.73
2023-04-14T21:05:39.109Z,1.70
2023-04-14T21:08:06.984Z,2.00
2023-04-14T21:11:02.235Z,1.63
2023-04-14T21:15:40.441Z,1.55
2023-04-14T21:16:16.213Z,1.80
2023-04-14T21:18:43.783Z,1.73
2023-04-14T21:21:14.996Z,1.90
2023-04-14T21:23:43.668Z,2.13
2023-04-14T21:26:11.965Z,2.30
2023-04-14T21:28:43.031Z,2.40
2023-04-14T21:31:11.427Z,2.15
2023-04-14T21:33:40.076Z,2.08
2023-04-14T21:36:09.563Z,1.88
2023-04-14T21:38:38.520Z,2.30
2023-04-14T21:41:07.931Z,2.35
2023-04-14T21:43:38.503Z,2.60
2023-04-14T21:46:06.237Z,2.42
2023-04-14T21:48:34.031Z,2.92
2023-04-14T21:51:02.427Z,2.17
2023-04-14T21:53:30.817Z,2.43
2023-04-14T21:56:09.840Z,2.50
2023-04-14T21:58:40.291Z,2.45
2023-04-14T22:01:10.184Z,2.60
2023-04-14T22:03:41.780Z,2.20
2023-04-14T22:06:11.465Z,2.63
2023-04-14T22:08:42.575Z,2.30
2023-04-14T22:11:10.229Z,2.40
2023-04-14T22:13:38.041Z,2.10
2023-04-14T22:16:11.430Z,3.00
2023-04-14T22:18:39.957Z,2.20
2023-04-14T22:21:10.526Z,2.03
2023-04-14T22:23:40.159Z,2.33
2023-04-14T22:26:10.632Z,2.50
2023-04-14T22:28:40.690Z,2.30
2023-04-14T22:31:08.297Z,2.47
2023-04-14T22:33:39.505Z,2.38
2023-04-14T22:36:07.788Z,2.40
2023-04-14T22:38:35.565Z,2.80
2023-04-14T22:41:03.048Z,3.20
2023-04-14T22:43:30.807Z,3.30
2023-04-14T22:45:58.563Z,3.40
2023-04-14T22:48:26.612Z,3.17
2023-04-14T22:50:54.183Z,3.38
2023-04-14T22:53:23.161Z,2.97
2023-04-14T22:55:50.978Z,2.20
2023-04-14T22:58:20.200Z,2.67
2023-04-14T23:00:48.394Z,2.47
2023-04-14T23:03:16.675Z,3.47
2023-04-14T23:05:44.807Z,2.60
2023-04-14T23:08:14.573Z,3.00
2023-04-14T23:10:42.568Z,2.10
2023-04-14T23:13:09.984Z,2.60
2023-04-14T23:15:40.763Z,2.55
2023-04-14T23:18:09.489Z,2.45
2023-04-14T23:20:38.673Z,2.42
2023-04-14T23:23:10.985Z,2.17
2023-04-14T23:25:42.840Z,2.53
2023-04-14T23:28:12.250Z,2.45
2023-04-14T23:30:41.810Z,2.70
2023-04-14T23:33:10.058Z,2.30
2023-04-14T23:35:39.007Z,2.08
2023-04-14T23:38:07.370Z,2.70
2023-04-14T23:40:35.774Z,2.08
2023-04-14T23:43:05.476Z,2.55
2023-04-14T23:45:37.272Z,2.00
2023-04-14T23:48:06.010Z,2.20
2023-04-14T23:50:59.099Z,2.17
2023-04-14T23:53:21.868Z,2.00
2023-04-14T23:55:50.277Z,2.05
2023-04-14T23:58:26.334Z,2.08
